sensor_id;sensor_type;location;lat;lon;timestamp;P1;durP1;ratioP1;P2;durP2;ratioP2
23573;SDS011;11965;53.640;10.050;2023-02-15T00:02:01;52.15;;;50.08;;
23573;SDS011;11965;53.640;10.050;2023-02-15T00:04:28;51.64;;;49.38;;
23573;SDS011;11965;53.640;10.050;2023-02-15T00:07:13;50.48;;;48.74;;
23573;SDS011;11965;53.640;10.050;2023-02-15T00:09:41;49.44;;;47.42;;
23573;SDS011;11965;53.640;10.050;2023-02-15T00:12:09;50.88;;;49.10;;
23573;SDS011;11965;53.640;10.050;2023-02-15T00:14:36;51.16;;;49.47;;
23573;SDS011;11965;53.640;10.050;2023-02-15T00:17:03;51.55;;;49.73;;
23573;SDS011;11965;53.640;10.050;2023-02-15T00:19:30;51.42;;;49.31;;
23573;SDS011;11965;53.640;10.050;2023-02-15T00:21:57;50.44;;;48.61;;
23573;SDS011;11965;53.640;10.050;2023-02-15T00:24:25;50.19;;;48.18;;
23573;SDS011;11965;53.640;10.050;2023-02-15T00:26:52;52.30;;;49.79;;
23573;SDS011;11965;53.640;10.050;2023-02-15T00:29:19;51.45;;;49.50;;
23573;SDS011;11965;53.640;10.050;2023-02-15T00:31:46;51.17;;;49.47;;
23573;SDS011;11965;53.640;10.050;2023-02-15T00:34:14;52.17;;;50.02;;
23573;SDS011;11965;53.640;10.050;2023-02-15T00:36:43;52.22;;;50.02;;
23573;SDS011;11965;53.640;10.050;2023-02-15T00:39:10;52.70;;;50.49;;
23573;SDS011;11965;53.640;10.050;2023-02-15T00:41:39;51.25;;;49.30;;
23573;SDS011;11965;53.640;10.050;2023-02-15T00:44:06;51.97;;;49.90;;
23573;SDS011;11965;53.640;10.050;2023-02-15T00:46:34;53.14;;;50.83;;
23573;SDS011;11965;53.640;10.050;2023-02-15T00:49:01;52.14;;;49.88;;
23573;SDS011;11965;53.640;10.050;2023-02-15T00:51:30;50.09;;;48.27;;
23573;SDS011;11965;53.640;10.050;2023-02-15T00:53:57;51.61;;;49.92;;
23573;SDS011;11965;53.640;10.050;2023-02-15T00:56:24;51.11;;;49.19;;
23573;SDS011;11965;53.640;10.050;2023-02-15T00:58:52;50.74;;;48.84;;
23573;SDS011;11965;53.640;10.050;2023-02-15T01:01:19;51.76;;;49.72;;
23573;SDS011;11965;53.640;10.050;2023-02-15T01:03:47;51.32;;;49.28;;
23573;SDS011;11965;53.640;10.050;2023-02-15T01:06:14;51.83;;;50.02;;
23573;SDS011;11965;53.640;10.050;2023-02-15T01:08:42;52.25;;;49.50;;
23573;SDS011;11965;53.640;10.050;2023-02-15T01:11:10;51.31;;;49.34;;
23573;SDS011;11965;53.640;10.050;2023-02-15T01:13:39;51.12;;;49.55;;
23573;SDS011;11965;53.640;10.050;2023-02-15T01:16:08;52.07;;;50.22;;
23573;SDS011;11965;53.640;10.050;2023-02-15T01:18:35;51.73;;;49.90;;
23573;SDS011;11965;53.640;10.050;2023-02-15T01:21:08;51.61;;;49.48;;
23573;SDS011;11965;53.640;10.050;2023-02-15T01:23:39;50.74;;;48.80;;
23573;SDS011;11965;53.640;10.050;2023-02-15T01:26:06;50.97;;;49.29;;
23573;SDS011;11965;53.640;10.050;2023-02-15T01:28:33;53.15;;;50.58;;
23573;SDS011;11965;53.640;10.050;2023-02-15T01:31:04;51.82;;;49.97;;
23573;SDS011;11965;53.640;10.050;2023-02-15T01:33:33;50.22;;;47.74;;
23573;SDS011;11965;53.640;10.050;2023-02-15T01:36:02;50.01;;;48.13;;
23573;SDS011;11965;53.640;10.050;2023-02-15T01:38:31;50.61;;;48.51;;
23573;SDS011;11965;53.640;10.050;2023-02-15T01:40:58;49.76;;;47.87;;
23573;SDS011;11965;53.640;10.050;2023-02-15T01:43:39;49.37;;;47.84;;
23573;SDS011;11965;53.640;10.050;2023-02-15T01:46:07;50.31;;;48.06;;
23573;SDS011;11965;53.640;10.050;2023-02-15T01:48:38;50.31;;;48.20;;
23573;SDS011;11965;53.640;10.050;2023-02-15T01:51:11;48.86;;;47.31;;
23573;SDS011;11965;53.640;10.050;2023-02-15T01:53:40;48.83;;;46.96;;
23573;SDS011;11965;53.640;10.050;2023-02-15T01:56:13;48.24;;;46.02;;
23573;SDS011;11965;53.640;10.050;2023-02-15T01:58:48;49.84;;;47.24;;
23573;SDS011;11965;53.640;10.050;2023-02-15T02:01:17;48.61;;;46.27;;
23573;SDS011;11965;53.640;10.050;2023-02-15T02:03:49;47.45;;;45.57;;
23573;SDS011;11965;53.640;10.050;2023-02-15T02:06:25;50.42;;;48.16;;
23573;SDS011;11965;53.640;10.050;2023-02-15T02:08:53;49.96;;;47.54;;
23573;SDS011;11965;53.640;10.050;2023-02-15T02:11:21;50.77;;;48.10;;
23573;SDS011;11965;53.640;10.050;2023-02-15T02:13:48;47.00;;;45.33;;
23573;SDS011;11965;53.640;10.050;2023-02-15T02:16:20;48.68;;;46.64;;
23573;SDS011;11965;53.640;10.050;2023-02-15T02:18:59;49.45;;;47.63;;
23573;SDS011;11965;53.640;10.050;2023-02-15T02:25:02;48.01;;;46.44;;
23573;SDS011;11965;53.640;10.050;2023-02-15T02:27:56;49.20;;;47.29;;
23573;SDS011;11965;53.640;10.050;2023-02-15T02:31:00;48.40;;;46.73;;
23573;SDS011;11965;53.640;10.050;2023-02-15T02:33:55;48.87;;;46.71;;
23573;SDS011;11965;53.640;10.050;2023-02-15T02:36:31;49.78;;;47.50;;
23573;SDS011;11965;53.640;10.050;2023-02-15T02:39:08;48.98;;;46.99;;
23573;SDS011;11965;53.640;10.050;2023-02-15T02:41:50;49.71;;;47.63;;
23573;SDS011;11965;53.640;10.050;2023-02-15T02:44:28;48.30;;;46.30;;
23573;SDS011;11965;53.640;10.050;2023-02-15T02:47:08;48.38;;;46.17;;
23573;SDS011;11965;53.640;10.050;2023-02-15T02:49:43;47.78;;;45.69;;
23573;SDS011;11965;53.640;10.050;2023-02-15T02:55:01;48.07;;;45.79;;
23573;SDS011;11965;53.640;10.050;2023-02-15T02:57:32;47.79;;;45.35;;
23573;SDS011;11965;53.640;10.050;2023-02-15T03:00:03;46.50;;;44.62;;
23573;SDS011;11965;53.640;10.050;2023-02-15T03:02:34;48.33;;;46.21;;
23573;SDS011;11965;53.640;10.050;2023-02-15T03:05:11;46.36;;;44.38;;
23573;SDS011;11965;53.640;10.050;2023-02-15T03:07:42;47.12;;;45.01;;
23573;SDS011;11965;53.640;10.050;2023-02-15T03:10:17;48.33;;;45.91;;
23573;SDS011;11965;53.640;10.050;2023-02-15T03:12:49;48.26;;;46.10;;
23573;SDS011;11965;53.640;10.050;2023-02-15T03:15:19;46.61;;;45.00;;
23573;SDS011;11965;53.640;10.050;2023-02-15T03:17:51;45.51;;;43.87;;
23573;SDS011;11965;53.640;10.050;2023-02-15T03:20:24;47.44;;;45.32;;
23573;SDS011;11965;53.640;10.050;2023-02-15T03:22:57;48.54;;;46.48;;
23573;SDS011;11965;53.640;10.050;2023-02-15T03:25:30;48.15;;;46.28;;
23573;SDS011;11965;53.640;10.050;2023-02-15T03:28:01;49.61;;;47.52;;
23573;SDS011;11965;53.640;10.050;2023-02-15T03:30:33;48.01;;;46.16;;
23573;SDS011;11965;53.640;10.050;2023-02-15T03:33:04;48.00;;;45.60;;
23573;SDS011;11965;53.640;10.050;2023-02-15T03:35:38;47.13;;;44.96;;
23573;SDS011;11965;53.640;10.050;2023-02-15T03:38:14;47.70;;;45.54;;
23573;SDS011;11965;53.640;10.050;2023-02-15T03:40:49;47.81;;;45.65;;
23573;SDS011;11965;53.640;10.050;2023-02-15T03:43:38;48.10;;;45.58;;
23573;SDS011;11965;53.640;10.050;2023-02-15T03:46:16;46.63;;;44.59;;
23573;SDS011;11965;53.640;10.050;2023-02-15T03:48:52;45.87;;;44.02;;
23573;SDS011;11965;53.640;10.050;2023-02-15T03:51:25;47.56;;;45.00;;
23573;SDS011;11965;53.640;10.050;2023-02-15T03:53:59;46.94;;;45.17;;
23573;SDS011;11965;53.640;10.050;2023-02-15T03:56:29;47.08;;;45.09;;
23573;SDS011;11965;53.640;10.050;2023-02-15T03:58:56;47.65;;;45.33;;
23573;SDS011;11965;53.640;10.050;2023-02-15T04:01:43;46.18;;;44.64;;
23573;SDS011;11965;53.640;10.050;2023-02-15T04:04:33;46.25;;;44.59;;
23573;SDS011;11965;53.640;10.050;2023-02-15T04:07:04;46.22;;;44.53;;
23573;SDS011;11965;53.640;10.050;2023-02-15T04:09:33;45.26;;;43.82;;
23573;SDS011;11965;53.640;10.050;2023-02-15T04:12:18;45.96;;;43.96;;
23573;SDS011;11965;53.640;10.050;2023-02-15T04:14:45;46.31;;;44.13;;
23573;SDS011;11965;53.640;10.050;2023-02-15T04:17:29;44.42;;;42.88;;
23573;SDS011;11965;53.640;10.050;2023-02-15T04:19:56;46.69;;;44.89;;
23573;SDS011;11965;53.640;10.050;2023-02-15T04:22:42;45.76;;;44.17;;
23573;SDS011;11965;53.640;10.050;2023-02-15T04:25:26;46.17;;;44.32;;
23573;SDS011;11965;53.640;10.050;2023-02-15T04:27:53;47.40;;;45.19;;
23573;SDS011;11965;53.640;10.050;2023-02-15T04:30:21;46.96;;;44.91;;
23573;SDS011;11965;53.640;10.050;2023-02-15T04:32:50;46.05;;;43.49;;
23573;SDS011;11965;53.640;10.050;2023-02-15T04:35:17;45.27;;;43.10;;
23573;SDS011;11965;53.640;10.050;2023-02-15T04:37:45;46.32;;;44.00;;
23573;SDS011;11965;53.640;10.050;2023-02-15T04:40:13;44.86;;;42.89;;
23573;SDS011;11965;53.640;10.050;2023-02-15T04:42:41;44.20;;;42.54;;
23573;SDS011;11965;53.640;10.050;2023-02-15T04:45:08;45.14;;;43.10;;
23573;SDS011;11965;53.640;10.050;2023-02-15T04:47:35;44.71;;;42.46;;
23573;SDS011;11965;53.640;10.050;2023-02-15T04:50:02;42.64;;;41.14;;
23573;SDS011;11965;53.640;10.050;2023-02-15T04:52:29;42.68;;;40.95;;
23573;SDS011;11965;53.640;10.050;2023-02-15T04:54:57;43.42;;;41.52;;
23573;SDS011;11965;53.640;10.050;2023-02-15T04:57:24;44.02;;;42.02;;
23573;SDS011;11965;53.640;10.050;2023-02-15T04:59:51;45.67;;;43.17;;
23573;SDS011;11965;53.640;10.050;2023-02-15T05:02:17;45.05;;;43.23;;
23573;SDS011;11965;53.640;10.050;2023-02-15T05:04:44;42.66;;;40.99;;
23573;SDS011;11965;53.640;10.050;2023-02-15T05:07:11;45.17;;;43.24;;
23573;SDS011;11965;53.640;10.050;2023-02-15T05:09:38;45.59;;;43.47;;
23573;SDS011;11965;53.640;10.050;2023-02-15T05:12:06;45.11;;;43.19;;
23573;SDS011;11965;53.640;10.050;2023-02-15T05:14:33;45.45;;;43.33;;
23573;SDS011;11965;53.640;10.050;2023-02-15T05:17:00;42.88;;;41.28;;
23573;SDS011;11965;53.640;10.050;2023-02-15T05:19:28;44.55;;;42.73;;
23573;SDS011;11965;53.640;10.050;2023-02-15T05:21:55;44.01;;;42.25;;
23573;SDS011;11965;53.640;10.050;2023-02-15T05:24:22;43.43;;;42.00;;
23573;SDS011;11965;53.640;10.050;2023-02-15T05:27:19;43.29;;;41.70;;
23573;SDS011;11965;53.640;10.050;2023-02-15T05:30:03;44.31;;;42.13;;
23573;SDS011;11965;53.640;10.050;2023-02-15T05:32:36;42.37;;;40.63;;
23573;SDS011;11965;53.640;10.050;2023-02-15T05:35:03;42.13;;;40.66;;
23573;SDS011;11965;53.640;10.050;2023-02-15T05:37:31;42.06;;;40.14;;
23573;SDS011;11965;53.640;10.050;2023-02-15T05:39:58;40.52;;;38.96;;
23573;SDS011;11965;53.640;10.050;2023-02-15T05:42:26;41.19;;;39.48;;
23573;SDS011;11965;53.640;10.050;2023-02-15T05:44:53;40.94;;;38.94;;
23573;SDS011;11965;53.640;10.050;2023-02-15T05:47:19;41.48;;;40.04;;
23573;SDS011;11965;53.640;10.050;2023-02-15T05:49:46;40.61;;;38.82;;
23573;SDS011;11965;53.640;10.050;2023-02-15T05:52:13;41.75;;;40.00;;
23573;SDS011;11965;53.640;10.050;2023-02-15T05:54:40;42.09;;;40.48;;
23573;SDS011;11965;53.640;10.050;2023-02-15T05:57:07;43.05;;;41.36;;
23573;SDS011;11965;53.640;10.050;2023-02-15T05:59:35;43.34;;;41.29;;
23573;SDS011;11965;53.640;10.050;2023-02-15T06:02:02;43.66;;;41.26;;
23573;SDS011;11965;53.640;10.050;2023-02-15T06:04:28;42.00;;;40.40;;
23573;SDS011;11965;53.640;10.050;2023-02-15T06:06:55;41.86;;;40.00;;
23573;SDS011;11965;53.640;10.050;2023-02-15T06:09:22;40.78;;;39.47;;
23573;SDS011;11965;53.640;10.050;2023-02-15T06:11:49;41.73;;;40.21;;
23573;SDS011;11965;53.640;10.050;2023-02-15T06:14:16;39.44;;;37.96;;
23573;SDS011;11965;53.640;10.050;2023-02-15T06:16:44;39.50;;;37.85;;
23573;SDS011;11965;53.640;10.050;2023-02-15T06:19:11;40.70;;;39.01;;
23573;SDS011;11965;53.640;10.050;2023-02-15T06:21:38;40.65;;;39.08;;
23573;SDS011;11965;53.640;10.050;2023-02-15T06:24:05;39.70;;;38.24;;
23573;SDS011;11965;53.640;10.050;2023-02-15T06:26:32;40.46;;;38.89;;
23573;SDS011;11965;53.640;10.050;2023-02-15T06:28:59;40.05;;;38.36;;
23573;SDS011;11965;53.640;10.050;2023-02-15T06:31:25;39.77;;;38.03;;
23573;SDS011;11965;53.640;10.050;2023-02-15T06:33:54;38.49;;;37.05;;
23573;SDS011;11965;53.640;10.050;2023-02-15T06:36:26;37.69;;;36.22;;
23573;SDS011;11965;53.640;10.050;2023-02-15T06:38:53;37.08;;;35.73;;
23573;SDS011;11965;53.640;10.050;2023-02-15T06:41:19;38.00;;;36.50;;
23573;SDS011;11965;53.640;10.050;2023-02-15T06:43:46;37.13;;;35.67;;
23573;SDS011;11965;53.640;10.050;2023-02-15T06:46:13;36.42;;;35.10;;
23573;SDS011;11965;53.640;10.050;2023-02-15T06:48:40;37.45;;;36.03;;
23573;SDS011;11965;53.640;10.050;2023-02-15T06:51:08;38.72;;;37.29;;
23573;SDS011;11965;53.640;10.050;2023-02-15T06:53:35;37.71;;;36.35;;
23573;SDS011;11965;53.640;10.050;2023-02-15T06:56:03;36.69;;;35.12;;
23573;SDS011;11965;53.640;10.050;2023-02-15T06:58:31;36.54;;;35.19;;
23573;SDS011;11965;53.640;10.050;2023-02-15T07:00:58;36.64;;;35.32;;
23573;SDS011;11965;53.640;10.050;2023-02-15T07:03:25;38.39;;;36.81;;
23573;SDS011;11965;53.640;10.050;2023-02-15T07:05:53;37.55;;;36.09;;
23573;SDS011;11965;53.640;10.050;2023-02-15T07:08:22;37.09;;;35.51;;
23573;SDS011;11965;53.640;10.050;2023-02-15T07:10:49;39.22;;;37.60;;
23573;SDS011;11965;53.640;10.050;2023-02-15T07:13:16;38.66;;;37.05;;
23573;SDS011;11965;53.640;10.050;2023-02-15T07:15:41;39.64;;;38.21;;
23573;SDS011;11965;53.640;10.050;2023-02-15T07:18:08;37.08;;;35.65;;
23573;SDS011;11965;53.640;10.050;2023-02-15T07:20:35;36.97;;;35.48;;
23573;SDS011;11965;53.640;10.050;2023-02-15T07:23:03;37.99;;;36.69;;
23573;SDS011;11965;53.640;10.050;2023-02-15T07:25:32;37.93;;;36.60;;
23573;SDS011;11965;53.640;10.050;2023-02-15T07:28:00;38.56;;;37.14;;
23573;SDS011;11965;53.640;10.050;2023-02-15T07:30:29;37.57;;;36.08;;
23573;SDS011;11965;53.640;10.050;2023-02-15T07:32:56;38.22;;;36.84;;
23573;SDS011;11965;53.640;10.050;2023-02-15T07:35:45;39.18;;;37.60;;
23573;SDS011;11965;53.640;10.050;2023-02-15T07:38:13;38.92;;;37.07;;
23573;SDS011;11965;53.640;10.050;2023-02-15T07:40:41;38.47;;;36.68;;
23573;SDS011;11965;53.640;10.050;2023-02-15T07:43:08;37.66;;;36.22;;
23573;SDS011;11965;53.640;10.050;2023-02-15T07:45:35;37.92;;;36.04;;
23573;SDS011;11965;53.640;10.050;2023-02-15T07:48:03;40.40;;;38.97;;
23573;SDS011;11965;53.640;10.050;2023-02-15T07:50:30;39.29;;;37.51;;
23573;SDS011;11965;53.640;10.050;2023-02-15T07:52:57;40.83;;;38.80;;
23573;SDS011;11965;53.640;10.050;2023-02-15T07:55:24;38.74;;;36.86;;
23573;SDS011;11965;53.640;10.050;2023-02-15T07:57:52;39.41;;;38.24;;
23573;SDS011;11965;53.640;10.050;2023-02-15T08:00:20;39.17;;;37.43;;
23573;SDS011;11965;53.640;10.050;2023-02-15T08:02:50;40.09;;;38.42;;
23573;SDS011;11965;53.640;10.050;2023-02-15T08:05:38;40.04;;;38.01;;
23573;SDS011;11965;53.640;10.050;2023-02-15T08:08:06;40.38;;;38.25;;
23573;SDS011;11965;53.640;10.050;2023-02-15T08:29:01;40.54;;;38.60;;
23573;SDS011;11965;53.640;10.050;2023-02-15T08:31:29;40.19;;;38.57;;
23573;SDS011;11965;53.640;10.050;2023-02-15T08:33:56;40.36;;;39.10;;
23573;SDS011;11965;53.640;10.050;2023-02-15T08:36:24;39.99;;;38.45;;
23573;SDS011;11965;53.640;10.050;2023-02-15T08:38:52;40.66;;;38.76;;
23573;SDS011;11965;53.640;10.050;2023-02-15T08:41:20;41.09;;;39.38;;
23573;SDS011;11965;53.640;10.050;2023-02-15T08:43:50;40.46;;;38.86;;
23573;SDS011;11965;53.640;10.050;2023-02-15T08:46:21;38.86;;;37.51;;
23573;SDS011;11965;53.640;10.050;2023-02-15T08:48:49;40.15;;;38.39;;
23573;SDS011;11965;53.640;10.050;2023-02-15T08:51:18;41.26;;;39.68;;
23573;SDS011;11965;53.640;10.050;2023-02-15T08:53:46;41.54;;;39.95;;
23573;SDS011;11965;53.640;10.050;2023-02-15T08:56:15;40.46;;;39.11;;
23573;SDS011;11965;53.640;10.050;2023-02-15T08:58:44;40.75;;;39.10;;
23573;SDS011;11965;53.640;10.050;2023-02-15T09:01:11;40.01;;;38.29;;
23573;SDS011;11965;53.640;10.050;2023-02-15T09:03:44;39.57;;;37.96;;
23573;SDS011;11965;53.640;10.050;2023-02-15T09:06:13;39.58;;;38.20;;
23573;SDS011;11965;53.640;10.050;2023-02-15T09:08:41;40.51;;;39.22;;
23573;SDS011;11965;53.640;10.050;2023-02-15T09:11:08;41.02;;;39.18;;
23573;SDS011;11965;53.640;10.050;2023-02-15T09:13:37;41.08;;;39.34;;
23573;SDS011;11965;53.640;10.050;2023-02-15T09:16:06;41.26;;;39.84;;
23573;SDS011;11965;53.640;10.050;2023-02-15T09:18:36;40.06;;;38.81;;
23573;SDS011;11965;53.640;10.050;2023-02-15T09:21:06;42.46;;;41.27;;
23573;SDS011;11965;53.640;10.050;2023-02-15T09:23:35;41.13;;;39.55;;
23573;SDS011;11965;53.640;10.050;2023-02-15T09:26:03;44.41;;;42.66;;
23573;SDS011;11965;53.640;10.050;2023-02-15T09:28:31;43.63;;;41.94;;
23573;SDS011;11965;53.640;10.050;2023-02-15T09:31:04;42.36;;;40.54;;
23573;SDS011;11965;53.640;10.050;2023-02-15T09:33:37;43.04;;;41.40;;
23573;SDS011;11965;53.640;10.050;2023-02-15T09:36:13;44.65;;;42.53;;
23573;SDS011;11965;53.640;10.050;2023-02-15T09:38:42;44.41;;;42.56;;
23573;SDS011;11965;53.640;10.050;2023-02-15T09:41:14;43.29;;;41.63;;
23573;SDS011;11965;53.640;10.050;2023-02-15T09:43:57;44.11;;;42.10;;
23573;SDS011;11965;53.640;10.050;2023-02-15T09:46:44;44.45;;;42.60;;
23573;SDS011;11965;53.640;10.050;2023-02-15T09:49:31;47.07;;;45.20;;
23573;SDS011;11965;53.640;10.050;2023-02-15T09:52:24;48.03;;;46.28;;
23573;SDS011;11965;53.640;10.050;2023-02-15T09:55:09;43.77;;;41.58;;
23573;SDS011;11965;53.640;10.050;2023-02-15T09:57:53;42.25;;;40.94;;
23573;SDS011;11965;53.640;10.050;2023-02-15T10:00:36;41.31;;;39.68;;
23573;SDS011;11965;53.640;10.050;2023-02-15T10:03:26;41.59;;;39.89;;
23573;SDS011;11965;53.640;10.050;2023-02-15T10:06:14;42.94;;;41.19;;
23573;SDS011;11965;53.640;10.050;2023-02-15T10:09:03;43.98;;;42.13;;
23573;SDS011;11965;53.640;10.050;2023-02-15T10:11:47;43.13;;;41.28;;
23573;SDS011;11965;53.640;10.050;2023-02-15T10:14:36;44.23;;;42.45;;
23573;SDS011;11965;53.640;10.050;2023-02-15T10:17:21;45.62;;;44.01;;
23573;SDS011;11965;53.640;10.050;2023-02-15T10:20:05;45.02;;;43.35;;
23573;SDS011;11965;53.640;10.050;2023-02-15T10:22:48;46.02;;;44.22;;
23573;SDS011;11965;53.640;10.050;2023-02-15T10:25:37;45.60;;;44.08;;
23573;SDS011;11965;53.640;10.050;2023-02-15T10:28:15;44.96;;;43.37;;
23573;SDS011;11965;53.640;10.050;2023-02-15T10:30:46;46.92;;;44.71;;
23573;SDS011;11965;53.640;10.050;2023-02-15T10:33:32;46.74;;;45.06;;
23573;SDS011;11965;53.640;10.050;2023-02-15T10:36:08;47.52;;;45.78;;
23573;SDS011;11965;53.640;10.050;2023-02-15T10:38:51;49.14;;;47.12;;
23573;SDS011;11965;53.640;10.050;2023-02-15T10:41:33;49.13;;;47.13;;
23573;SDS011;11965;53.640;10.050;2023-02-15T10:47:13;49.87;;;48.02;;
23573;SDS011;11965;53.640;10.050;2023-02-15T10:50:04;50.26;;;48.36;;
23573;SDS011;11965;53.640;10.050;2023-02-15T10:52:46;49.79;;;48.01;;
23573;SDS011;11965;53.640;10.050;2023-02-15T10:55:29;52.14;;;50.00;;
23573;SDS011;11965;53.640;10.050;2023-02-15T10:58:13;53.36;;;51.24;;
23573;SDS011;11965;53.640;10.050;2023-02-15T11:00:56;51.87;;;49.90;;
23573;SDS011;11965;53.640;10.050;2023-02-15T11:03:39;53.26;;;51.08;;
23573;SDS011;11965;53.640;10.050;2023-02-15T11:06:24;52.97;;;50.62;;
23573;SDS011;11965;53.640;10.050;2023-02-15T11:08:54;52.65;;;50.55;;
23573;SDS011;11965;53.640;10.050;2023-02-15T11:11:26;53.53;;;51.09;;
23573;SDS011;11965;53.640;10.050;2023-02-15T11:14:01;53.44;;;51.60;;
23573;SDS011;11965;53.640;10.050;2023-02-15T11:16:36;53.88;;;51.80;;
23573;SDS011;11965;53.640;10.050;2023-02-15T11:19:11;55.03;;;53.13;;
23573;SDS011;11965;53.640;10.050;2023-02-15T11:21:48;55.62;;;53.11;;
23573;SDS011;11965;53.640;10.050;2023-02-15T11:24:21;54.97;;;52.35;;
23573;SDS011;11965;53.640;10.050;2023-02-15T11:26:54;55.46;;;53.21;;
23573;SDS011;11965;53.640;10.050;2023-02-15T11:29:28;55.78;;;53.61;;
23573;SDS011;11965;53.640;10.050;2023-02-15T11:32:03;56.84;;;54.35;;
23573;SDS011;11965;53.640;10.050;2023-02-15T11:34:47;54.83;;;52.70;;
23573;SDS011;11965;53.640;10.050;2023-02-15T11:37:20;56.02;;;53.75;;
23573;SDS011;11965;53.640;10.050;2023-02-15T11:39:56;54.68;;;52.62;;
23573;SDS011;11965;53.640;10.050;2023-02-15T11:42:23;56.45;;;54.59;;
23573;SDS011;11965;53.640;10.050;2023-02-15T11:44:56;57.76;;;55.71;;
23573;SDS011;11965;53.640;10.050;2023-02-15T11:47:30;59.27;;;56.70;;
23573;SDS011;11965;53.640;10.050;2023-02-15T11:49:57;58.79;;;56.64;;
23573;SDS011;11965;53.640;10.050;2023-02-15T11:52:25;57.81;;;56.04;;
23573;SDS011;11965;53.640;10.050;2023-02-15T11:54:52;57.80;;;55.78;;
23573;SDS011;11965;53.640;10.050;2023-02-15T11:57:21;57.98;;;55.95;;
23573;SDS011;11965;53.640;10.050;2023-02-15T11:59:58;57.92;;;55.87;;
23573;SDS011;11965;53.640;10.050;2023-02-15T12:02:33;56.75;;;54.44;;
23573;SDS011;11965;53.640;10.050;2023-02-15T12:05:09;56.12;;;54.35;;
23573;SDS011;11965;53.640;10.050;2023-02-15T12:07:42;56.77;;;54.56;;
23573;SDS011;11965;53.640;10.050;2023-02-15T12:10:17;58.58;;;56.38;;
23573;SDS011;11965;53.640;10.050;2023-02-15T12:12:53;57.88;;;55.63;;
23573;SDS011;11965;53.640;10.050;2023-02-15T12:15:37;59.21;;;57.14;;
23573;SDS011;11965;53.640;10.050;2023-02-15T12:18:15;59.61;;;56.87;;
23573;SDS011;11965;53.640;10.050;2023-02-15T12:20:46;57.09;;;55.41;;
23573;SDS011;11965;53.640;10.050;2023-02-15T12:23:15;59.98;;;58.01;;
23573;SDS011;11965;53.640;10.050;2023-02-15T12:25:49;58.65;;;56.67;;
23573;SDS011;11965;53.640;10.050;2023-02-15T12:28:22;60.48;;;58.30;;
23573;SDS011;11965;53.640;10.050;2023-02-15T12:30:55;58.84;;;56.84;;
23573;SDS011;11965;53.640;10.050;2023-02-15T12:33:25;59.69;;;57.51;;
23573;SDS011;11965;53.640;10.050;2023-02-15T12:35:57;61.31;;;59.30;;
23573;SDS011;11965;53.640;10.050;2023-02-15T12:38:28;59.97;;;57.93;;
23573;SDS011;11965;53.640;10.050;2023-02-15T12:40:59;59.57;;;57.72;;
23573;SDS011;11965;53.640;10.050;2023-02-15T12:43:30;60.57;;;58.46;;
23573;SDS011;11965;53.640;10.050;2023-02-15T12:46:21;60.30;;;58.08;;
23573;SDS011;11965;53.640;10.050;2023-02-15T12:51:43;58.27;;;56.19;;
23573;SDS011;11965;53.640;10.050;2023-02-15T12:54:16;60.71;;;58.58;;
23573;SDS011;11965;53.640;10.050;2023-02-15T12:56:51;58.95;;;56.95;;
23573;SDS011;11965;53.640;10.050;2023-02-15T12:59:18;57.22;;;55.11;;
23573;SDS011;11965;53.640;10.050;2023-02-15T13:01:47;57.39;;;55.64;;
23573;SDS011;11965;53.640;10.050;2023-02-15T13:04:17;57.84;;;56.18;;
23573;SDS011;11965;53.640;10.050;2023-02-15T13:06:51;57.45;;;55.64;;
23573;SDS011;11965;53.640;10.050;2023-02-15T13:09:24;55.88;;;54.36;;
23573;SDS011;11965;53.640;10.050;2023-02-15T13:12:08;56.84;;;54.96;;
23573;SDS011;11965;53.640;10.050;2023-02-15T13:14:43;57.73;;;56.12;;
23573;SDS011;11965;53.640;10.050;2023-02-15T13:17:17;56.85;;;55.27;;
23573;SDS011;11965;53.640;10.050;2023-02-15T13:19:54;56.51;;;54.79;;
23573;SDS011;11965;53.640;10.050;2023-02-15T13:22:27;57.63;;;55.57;;
23573;SDS011;11965;53.640;10.050;2023-02-15T13:25:04;56.72;;;54.99;;
23573;SDS011;11965;53.640;10.050;2023-02-15T13:27:41;57.22;;;55.33;;
23573;SDS011;11965;53.640;10.050;2023-02-15T13:30:16;56.19;;;54.40;;
23573;SDS011;11965;53.640;10.050;2023-02-15T13:32:53;56.80;;;55.17;;
23573;SDS011;11965;53.640;10.050;2023-02-15T13:35:24;55.39;;;53.50;;
23573;SDS011;11965;53.640;10.050;2023-02-15T13:38:02;53.50;;;52.43;;
23573;SDS011;11965;53.640;10.050;2023-02-15T13:40:46;55.40;;;53.65;;
23573;SDS011;11965;53.640;10.050;2023-02-15T13:43:33;55.26;;;53.71;;
23573;SDS011;11965;53.640;10.050;2023-02-15T13:46:13;55.45;;;54.01;;
23573;SDS011;11965;53.640;10.050;2023-02-15T13:48:54;53.05;;;51.53;;
23573;SDS011;11965;53.640;10.050;2023-02-15T13:51:33;52.21;;;50.66;;
23573;SDS011;11965;53.640;10.050;2023-02-15T13:54:24;53.03;;;51.44;;
23573;SDS011;11965;53.640;10.050;2023-02-15T13:57:23;53.91;;;52.27;;
23573;SDS011;11965;53.640;10.050;2023-02-15T14:00:12;52.24;;;50.61;;
23573;SDS011;11965;53.640;10.050;2023-02-15T14:02:53;55.29;;;53.54;;
23573;SDS011;11965;53.640;10.050;2023-02-15T14:05:59;55.23;;;53.55;;
23573;SDS011;11965;53.640;10.050;2023-02-15T14:08:47;54.25;;;52.74;;
23573;SDS011;11965;53.640;10.050;2023-02-15T14:11:30;54.57;;;52.77;;
23573;SDS011;11965;53.640;10.050;2023-02-15T14:14:22;54.20;;;52.64;;
23573;SDS011;11965;53.640;10.050;2023-02-15T14:17:07;55.33;;;53.54;;
23573;SDS011;11965;53.640;10.050;2023-02-15T14:19:46;55.61;;;54.01;;
23573;SDS011;11965;53.640;10.050;2023-02-15T14:22:22;53.66;;;52.35;;
23573;SDS011;11965;53.640;10.050;2023-02-15T14:25:00;52.31;;;50.69;;
23573;SDS011;11965;53.640;10.050;2023-02-15T14:27:46;52.96;;;51.40;;
23573;SDS011;11965;53.640;10.050;2023-02-15T14:30:23;53.96;;;52.45;;
23573;SDS011;11965;53.640;10.050;2023-02-15T14:32:55;54.25;;;52.35;;
23573;SDS011;11965;53.640;10.050;2023-02-15T14:35:31;52.91;;;50.95;;
23573;SDS011;11965;53.640;10.050;2023-02-15T14:38:00;52.88;;;51.03;;
23573;SDS011;11965;53.640;10.050;2023-02-15T14:40:41;52.74;;;51.33;;
23573;SDS011;11965;53.640;10.050;2023-02-15T14:43:34;54.30;;;52.63;;
23573;SDS011;11965;53.640;10.050;2023-02-15T14:46:16;52.08;;;50.59;;
23573;SDS011;11965;53.640;10.050;2023-02-15T14:48:53;52.75;;;50.96;;
23573;SDS011;11965;53.640;10.050;2023-02-15T14:57:25;51.68;;;50.17;;
23573;SDS011;11965;53.640;10.050;2023-02-15T14:59:55;53.50;;;52.16;;
23573;SDS011;11965;53.640;10.050;2023-02-15T15:02:29;51.22;;;49.97;;
23573;SDS011;11965;53.640;10.050;2023-02-15T15:05:10;52.60;;;51.10;;
23573;SDS011;11965;53.640;10.050;2023-02-15T15:07:45;53.40;;;51.69;;
23573;SDS011;11965;53.640;10.050;2023-02-15T15:16:30;51.35;;;49.65;;
23573;SDS011;11965;53.640;10.050;2023-02-15T15:22:29;49.22;;;47.73;;
23573;SDS011;11965;53.640;10.050;2023-02-15T15:24:58;48.84;;;47.42;;
23573;SDS011;11965;53.640;10.050;2023-02-15T15:27:40;48.55;;;46.71;;
23573;SDS011;11965;53.640;10.050;2023-02-15T15:33:19;44.73;;;43.62;;